Time;durP1;ratioP1;P1;durP2;ratioP2;P2;SDS_P1;SDS_P2;PMS_P1;PMS_P2;Temp;Humidity;BMP_temperature;BMP_pressure;BME280_temperature;BME280_humidity;BME280_pressure;Samples;Min_cycle;Max_cycle;Signal;HPM_P1;HPM_P2
2024/01/20 00:02:06;;;;;;;11.43;8.70;;;;;;;;;;5013079;28;20449;-63
2024/01/20 00:04:32;;;;;;;9.67;7.90;;;;;;;;;;5016951;28;20917;-62
2024/01/20 00:06:58;;;;;;;11.30;8.30;;;;;;;;;;5015773;28;20524;-60
2024/01/20 00:09:24;;;;;;;11.37;8.43;;;;;;;;;;5011267;28;20829;-53
2024/01/20 00:11:50;;;;;;;11.13;7.90;;;;;;;;;;5005371;28;20436;-62
2024/01/20 00:14:16;;;;;;;10.80;7.67;;;;;;;;;;5022741;28;20182;-60
2024/01/20 00:16:42;;;;;;;11.83;8.00;;;;;;;;;;5014562;28;20440;-63
2024/01/20 00:19:08;;;;;;;11.57;8.33;;;;;;;;;;5008452;28;20224;-62
2024/01/20 00:21:34;;;;;;;11.07;7.10;;;;;;;;;;5014185;28;20949;-63
2024/01/20 00:24:00;;;;;;;10.80;7.40;;;;;;;;;;5018163;28;21978;-49
2024/01/20 00:26:26;;;;;;;9.63;7.60;;;;;;;;;;5020249;28;20959;-53
2024/01/20 00:28:52;;;;;;;11.17;7.90;;;;;;;;;;5015112;28;20571;-50
2024/01/20 00:31:18;;;;;;;11.50;7.80;;;;;;;;;;5019712;28;20186;-50
2024/01/20 00:33:44;;;;;;;10.93;7.90;;;;;;;;;;5008541;28;20625;-49
2024/01/20 00:36:10;;;;;;;13.93;8.03;;;;;;;;;;5015855;28;20515;-49
2024/01/20 00:38:39;;;;;;;9.47;7.23;;;;;;;;;;5023862;28;20190;-50
2024/01/20 00:41:05;;;;;;;8.43;6.20;;;;;;;;;;5019901;28;20661;-50
2024/01/20 00:43:32;;;;;;;10.53;7.27;;;;;;;;;;5014504;28;20968;-52
2024/01/20 00:45:58;;;;;;;13.47;7.47;;;;;;;;;;5021138;28;21292;-49
2024/01/20 00:48:24;;;;;;;9.47;7.03;;;;;;;;;;5015554;28;20436;-50
2024/01/20 00:50:51;;;;;;;11.23;7.50;;;;;;;;;;5015597;28;20864;-49
2024/01/20 00:53:17;;;;;;;8.97;6.47;;;;;;;;;;5021779;28;20182;-48
2024/01/20 00:55:43;;;;;;;9.00;7.30;;;;;;;;;;5012674;28;20503;-49
2024/01/20 00:58:10;;;;;;;13.87;8.13;;;;;;;;;;5009867;28;20183;-52
2024/01/20 01:00:36;;;;;;;8.17;6.30;;;;;;;;;;5018852;28;20413;-51
2024/01/20 01:03:03;;;;;;;8.83;6.57;;;;;;;;;;5014852;28;20448;-49
2024/01/20 01:05:29;;;;;;;6.83;5.93;;;;;;;;;;5011047;28;20813;-50
2024/01/20 01:07:56;;;;;;;11.73;7.03;;;;;;;;;;5014056;28;20514;-49
2024/01/20 01:10:22;;;;;;;8.37;6.70;;;;;;;;;;5015394;28;20428;-49
2024/01/20 01:12:49;;;;;;;11.57;6.70;;;;;;;;;;5024255;28;20752;-49
2024/01/20 01:15:15;;;;;;;8.93;6.43;;;;;;;;;;5009010;28;20890;-51
2024/01/20 01:17:41;;;;;;;7.83;6.47;;;;;;;;;;5019930;28;20440;-49
2024/01/20 01:20:08;;;;;;;8.50;6.70;;;;;;;;;;5014749;28;20536;-49
2024/01/20 01:22:34;;;;;;;9.63;7.10;;;;;;;;;;5013868;28;20964;-49
2024/01/20 01:25:00;;;;;;;11.30;7.13;;;;;;;;;;5010936;28;20508;-51
2024/01/20 01:27:26;;;;;;;9.53;7.03;;;;;;;;;;5011051;28;20487;-51
2024/01/20 01:29:52;;;;;;;11.90;6.87;;;;;;;;;;5020598;28;20502;-51
2024/01/20 01:32:19;;;;;;;10.10;6.87;;;;;;;;;;5012739;28;20405;-49
2024/01/20 01:34:45;;;;;;;9.83;6.93;;;;;;;;;;5012882;28;20412;-53
2024/01/20 01:37:11;;;;;;;12.33;7.37;;;;;;;;;;5014586;28;20443;-54
2024/01/20 01:39:37;;;;;;;11.17;6.77;;;;;;;;;;5013400;28;20870;-54
2024/01/20 01:42:03;;;;;;;8.83;6.77;;;;;;;;;;5014457;28;20509;-53
2024/01/20 01:44:29;;;;;;;10.77;6.40;;;;;;;;;;5018184;28;20212;-53
2024/01/20 01:46:56;;;;;;;10.97;7.20;;;;;;;;;;5016757;28;20516;-54
2024/01/20 01:49:22;;;;;;;9.37;7.17;;;;;;;;;;5011484;28;20425;-54
2024/01/20 01:51:49;;;;;;;8.30;6.73;;;;;;;;;;5023451;28;20431;-54
2024/01/20 01:54:15;;;;;;;11.43;7.50;;;;;;;;;;5019824;28;20952;-54
2024/01/20 01:56:42;;;;;;;11.43;7.23;;;;;;;;;;5021021;28;20753;-53
2024/01/20 01:59:09;;;;;;;11.60;7.80;;;;;;;;;;5021200;28;20409;-54
2024/01/20 02:01:35;;;;;;;11.17;7.33;;;;;;;;;;5019947;28;21170;-54
2024/01/20 02:04:01;;;;;;;11.90;7.80;;;;;;;;;;5021638;28;20497;-53
2024/01/20 02:06:27;;;;;;;9.47;6.60;;;;;;;;;;5013956;28;20159;-54
2024/01/20 02:08:53;;;;;;;9.53;7.00;;;;;;;;;;5013381;28;20687;-54
2024/01/20 02:11:20;;;;;;;9.13;6.77;;;;;;;;;;5024587;28;20427;-54
2024/01/20 02:13:46;;;;;;;11.17;7.27;;;;;;;;;;5020523;28;20460;-53
2024/01/20 02:16:12;;;;;;;8.43;6.43;;;;;;;;;;5017037;28;20444;-53
2024/01/20 02:18:38;;;;;;;11.87;7.57;;;;;;;;;;5023115;28;20602;-54
2024/01/20 02:21:07;;;;;;;10.00;7.00;;;;;;;;;;5016013;28;20797;-54
2024/01/20 02:23:41;;;;;;;11.40;7.80;;;;;;;;;;5013555;28;20456;-54
2024/01/20 02:26:07;;;;;;;11.37;7.33;;;;;;;;;;5016177;28;20422;-54
2024/01/20 02:28:33;;;;;;;11.27;7.30;;;;;;;;;;5018683;28;20839;-54
2024/01/20 02:30:59;;;;;;;12.33;8.23;;;;;;;;;;5017862;28;20412;-54
2024/01/20 02:33:25;;;;;;;10.67;7.50;;;;;;;;;;5017828;28;20891;-54
2024/01/20 02:35:51;;;;;;;10.07;7.50;;;;;;;;;;5012644;28;21374;-55
2024/01/20 02:38:17;;;;;;;10.73;7.63;;;;;;;;;;5020273;28;20483;-54
2024/01/20 02:40:43;;;;;;;15.10;8.27;;;;;;;;;;5019309;28;20201;-54
2024/01/20 02:43:09;;;;;;;12.80;8.30;;;;;;;;;;5018746;28;20198;-54
2024/01/20 02:45:35;;;;;;;10.50;7.57;;;;;;;;;;5023218;28;20816;-54
2024/01/20 02:48:01;;;;;;;15.27;9.13;;;;;;;;;;5010112;28;20260;-54
2024/01/20 02:50:27;;;;;;;11.50;8.00;;;;;;;;;;5024166;28;20232;-54
2024/01/20 02:52:53;;;;;;;18.00;8.57;;;;;;;;;;5018031;28;20255;-54
2024/01/20 02:55:19;;;;;;;13.10;8.27;;;;;;;;;;5009141;28;20186;-54
2024/01/20 02:57:45;;;;;;;11.80;7.90;;;;;;;;;;5018613;28;20503;-54
2024/01/20 03:00:12;;;;;;;13.53;8.07;;;;;;;;;;5017480;28;20445;-53
2024/01/20 03:02:38;;;;;;;14.50;8.47;;;;;;;;;;5017624;28;20521;-54
2024/01/20 03:05:04;;;;;;;12.87;9.17;;;;;;;;;;5010977;28;20493;-53
2024/01/20 03:07:30;;;;;;;12.47;8.07;;;;;;;;;;5015202;28;20789;-54
2024/01/20 03:09:56;;;;;;;12.47;8.93;;;;;;;;;;5016256;28;20409;-54
2024/01/20 03:12:22;;;;;;;13.57;8.87;;;;;;;;;;5024218;28;20194;-54
2024/01/20 03:14:48;;;;;;;14.13;8.10;;;;;;;;;;5011131;28;20440;-54
2024/01/20 03:17:14;;;;;;;11.43;8.87;;;;;;;;;;5025613;28;20876;-54
2024/01/20 03:19:40;;;;;;;11.37;7.73;;;;;;;;;;5016773;28;20218;-54
2024/01/20 03:22:06;;;;;;;17.10;8.40;;;;;;;;;;5020283;28;20449;-54
2024/01/20 03:24:32;;;;;;;12.63;8.10;;;;;;;;;;5025864;28;20513;-54
2024/01/20 03:26:58;;;;;;;15.50;9.97;;;;;;;;;;5016908;28;20595;-53
2024/01/20 03:29:24;;;;;;;14.23;9.67;;;;;;;;;;5011809;28;20413;-54
2024/01/20 03:31:51;;;;;;;12.20;8.83;;;;;;;;;;5017363;28;20217;-54
2024/01/20 03:34:17;;;;;;;11.53;8.33;;;;;;;;;;5021695;28;20833;-54
2024/01/20 03:36:43;;;;;;;12.73;8.53;;;;;;;;;;5012431;28;20428;-54
2024/01/20 03:39:09;;;;;;;13.23;8.17;;;;;;;;;;5014712;28;20899;-53
2024/01/20 03:41:35;;;;;;;13.07;9.73;;;;;;;;;;5018198;28;20532;-54
2024/01/20 03:44:01;;;;;;;14.03;9.33;;;;;;;;;;5024872;28;20520;-53
2024/01/20 03:46:27;;;;;;;13.13;8.43;;;;;;;;;;5018327;28;20229;-53
2024/01/20 03:48:53;;;;;;;13.50;8.90;;;;;;;;;;5018291;28;20275;-54
2024/01/20 03:51:22;;;;;;;12.13;8.23;;;;;;;;;;5016492;28;20424;-54
2024/01/20 03:53:48;;;;;;;11.73;8.20;;;;;;;;;;5011807;28;20434;-54
2024/01/20 03:56:14;;;;;;;15.03;9.57;;;;;;;;;;5012702;28;20429;-54
2024/01/20 03:58:40;;;;;;;14.33;8.77;;;;;;;;;;5015077;28;20467;-54
2024/01/20 04:01:06;;;;;;;14.43;9.10;;;;;;;;;;5015425;28;20433;-54
2024/01/20 04:03:33;;;;;;;14.70;9.17;;;;;;;;;;5018937;28;20878;-54
2024/01/20 04:05:59;;;;;;;11.70;7.97;;;;;;;;;;5011324;28;20228;-54
2024/01/20 04:08:25;;;;;;;13.07;9.03;;;;;;;;;;5023158;28;20490;-54
2024/01/20 04:10:51;;;;;;;14.10;8.20;;;;;;;;;;5010303;28;21149;-54
2024/01/20 04:13:17;;;;;;;11.40;8.00;;;;;;;;;;5013471;28;20261;-54
2024/01/20 04:15:43;;;;;;;11.93;8.13;;;;;;;;;;5010426;28;20489;-53
2024/01/20 04:18:10;;;;;;;13.77;7.80;;;;;;;;;;5016395;28;20197;-53
2024/01/20 04:20:36;;;;;;;10.80;7.80;;;;;;;;;;5013806;28;20459;-54
2024/01/20 04:23:02;;;;;;;11.17;8.37;;;;;;;;;;5020279;28;21138;-54
2024/01/20 04:25:28;;;;;;;12.17;8.27;;;;;;;;;;5008883;28;20932;-54
2024/01/20 04:27:54;;;;;;;11.77;8.17;;;;;;;;;;5023656;28;20405;-54
2024/01/20 04:30:20;;;;;;;15.40;8.57;;;;;;;;;;5016050;28;20194;-53
2024/01/20 04:32:46;;;;;;;12.97;8.30;;;;;;;;;;5011865;28;20170;-55
2024/01/20 04:35:12;;;;;;;12.07;8.10;;;;;;;;;;5022086;28;20254;-54
2024/01/20 04:37:39;;;;;;;10.97;7.73;;;;;;;;;;5015768;28;20437;-54
2024/01/20 04:40:06;;;;;;;12.47;8.40;;;;;;;;;;5011880;28;20422;-54
2024/01/20 04:42:32;;;;;;;11.77;8.37;;;;;;;;;;5017345;28;20436;-54
2024/01/20 04:45:00;;;;;;;13.00;7.77;;;;;;;;;;5020230;28;20476;-54
2024/01/20 04:47:26;;;;;;;12.83;8.03;;;;;;;;;;5015589;28;20555;-54
2024/01/20 04:49:53;;;;;;;10.13;7.00;;;;;;;;;;5011652;28;20501;-54
2024/01/20 04:52:20;;;;;;;11.93;7.83;;;;;;;;;;5014412;28;20480;-54
2024/01/20 04:54:46;;;;;;;10.30;7.40;;;;;;;;;;5014898;28;20421;-54
2024/01/20 04:57:12;;;;;;;12.87;7.97;;;;;;;;;;5018161;28;20501;-54
2024/01/20 04:59:38;;;;;;;12.37;8.13;;;;;;;;;;5018624;28;20776;-54
2024/01/20 05:02:04;;;;;;;11.63;8.30;;;;;;;;;;5012437;28;20884;-54
2024/01/20 05:04:30;;;;;;;10.10;7.37;;;;;;;;;;5014172;28;20464;-63
2024/01/20 05:06:56;;;;;;;10.13;7.97;;;;;;;;;;5013542;28;20456;-58
2024/01/20 05:09:22;;;;;;;9.80;7.43;;;;;;;;;;5014589;28;20260;-61
2024/01/20 05:11:48;;;;;;;10.33;7.83;;;;;;;;;;5012290;28;20521;-61
2024/01/20 05:14:14;;;;;;;12.93;8.37;;;;;;;;;;5020433;28;20549;-63
2024/01/20 05:16:40;;;;;;;14.00;7.87;;;;;;;;;;5015521;28;20428;-63
2024/01/20 05:19:06;;;;;;;12.23;8.27;;;;;;;;;;5016126;28;20658;-62
2024/01/20 05:21:32;;;;;;;12.67;9.07;;;;;;;;;;5020302;28;20491;-63
2024/01/20 05:23:58;;;;;;;12.53;8.57;;;;;;;;;;5019893;28;20983;-62
2024/01/20 05:26:24;;;;;;;13.57;7.67;;;;;;;;;;5022204;28;20272;-62
2024/01/20 05:28:50;;;;;;;11.83;7.77;;;;;;;;;;5023574;28;20567;-62
2024/01/20 05:31:16;;;;;;;13.17;8.27;;;;;;;;;;5023710;28;20189;-63
2024/01/20 05:33:42;;;;;;;11.23;8.10;;;;;;;;;;5018758;28;20420;-63
2024/01/20 05:36:12;;;;;;;13.73;8.97;;;;;;;;;;5016727;28;20472;-62
2024/01/20 05:38:38;;;;;;;12.73;7.90;;;;;;;;;;5020257;28;20439;-61
2024/01/20 05:41:05;;;;;;;12.10;8.03;;;;;;;;;;5024004;28;20401;-58
2024/01/20 05:43:31;;;;;;;12.93;8.50;;;;;;;;;;5017868;28;20815;-63
2024/01/20 05:45:57;;;;;;;10.20;7.97;;;;;;;;;;5018669;28;20559;-61
2024/01/20 05:48:23;;;;;;;12.20;7.93;;;;;;;;;;5017717;28;20428;-61
2024/01/20 05:50:49;;;;;;;10.97;7.53;;;;;;;;;;5015389;28;20234;-59
2024/01/20 05:53:15;;;;;;;12.33;8.30;;;;;;;;;;5021868;28;20525;-61
2024/01/20 05:55:41;;;;;;;12.83;8.57;;;;;;;;;;5020437;28;20579;-63
2024/01/20 05:58:07;;;;;;;13.67;8.60;;;;;;;;;;5018646;28;20798;-62
2024/01/20 06:00:33;;;;;;;11.60;8.17;;;;;;;;;;5017765;28;20439;-59
2024/01/20 06:02:59;;;;;;;12.90;8.80;;;;;;;;;;5023071;28;20323;-62
2024/01/20 06:05:25;;;;;;;12.37;7.77;;;;;;;;;;5016682;28;20232;-60
2024/01/20 06:07:51;;;;;;;13.63;7.83;;;;;;;;;;5024668;28;20817;-61
2024/01/20 06:10:17;;;;;;;10.23;7.93;;;;;;;;;;5017437;28;20482;-58
2024/01/20 06:12:43;;;;;;;12.43;8.07;;;;;;;;;;5024160;28;20272;-58
2024/01/20 06:15:09;;;;;;;12.17;7.53;;;;;;;;;;5014781;28;20200;-54
2024/01/20 06:17:35;;;;;;;12.80;8.47;;;;;;;;;;5016764;28;20430;-54
2024/01/20 06:20:03;;;;;;;14.73;8.23;;;;;;;;;;5017789;28;20452;-54
2024/01/20 06:22:29;;;;;;;9.80;7.80;;;;;;;;;;5024780;28;20539;-54
2024/01/20 06:24:55;;;;;;;12.90;9.20;;;;;;;;;;5028812;28;20514;-54
2024/01/20 06:27:21;;;;;;;12.87;8.70;;;;;;;;;;5019336;28;20501;-53
2024/01/20 06:29:47;;;;;;;12.43;8.57;;;;;;;;;;5024577;28;20881;-54
2024/01/20 06:32:13;;;;;;;12.43;8.83;;;;;;;;;;5024456;28;20417;-54
2024/01/20 06:34:39;;;;;;;13.40;8.47;;;;;;;;;;5010572;28;20405;-54
2024/01/20 06:37:06;;;;;;;11.63;8.17;;;;;;;;;;5017857;28;20462;-54
2024/01/20 06:39:32;;;;;;;12.13;8.90;;;;;;;;;;5014321;28;20486;-54
2024/01/20 06:41:58;;;;;;;13.00;8.87;;;;;;;;;;5019545;28;20568;-53
2024/01/20 06:44:24;;;;;;;11.47;8.00;;;;;;;;;;5017496;28;20551;-53
2024/01/20 06:46:50;;;;;;;15.07;9.53;;;;;;;;;;5016588;28;20245;-53
2024/01/20 06:49:16;;;;;;;14.07;8.77;;;;;;;;;;5017184;28;20492;-53
2024/01/20 06:51:43;;;;;;;10.90;8.63;;;;;;;;;;5014133;28;20524;-54
2024/01/20 06:54:09;;;;;;;12.27;8.10;;;;;;;;;;5024465;28;20449;-54
2024/01/20 06:56:35;;;;;;;11.77;8.50;;;;;;;;;;5026307;28;20574;-54
2024/01/20 06:59:01;;;;;;;11.67;8.60;;;;;;;;;;5012332;28;20431;-54
2024/01/20 07:01:27;;;;;;;12.17;7.83;;;;;;;;;;5013559;28;20510;-54
2024/01/20 07:03:53;;;;;;;12.87;8.03;;;;;;;;;;5023351;28;20289;-53
2024/01/20 07:06:23;;;;;;;9.57;7.87;;;;;;;;;;5018824;28;21056;-54
2024/01/20 07:08:49;;;;;;;12.47;8.77;;;;;;;;;;5015880;28;20441;-54
2024/01/20 07:11:16;;;;;;;12.23;8.33;;;;;;;;;;5013740;28;20445;-54
2024/01/20 07:13:42;;;;;;;11.90;9.30;;;;;;;;;;5016555;28;20807;-54
2024/01/20 07:16:11;;;;;;;9.50;7.73;;;;;;;;;;5023788;28;20785;-59
2024/01/20 07:18:37;;;;;;;10.60;8.10;;;;;;;;;;5017470;28;20413;-61
2024/01/20 07:21:03;;;;;;;12.57;7.67;;;;;;;;;;5013519;28;20437;-59
2024/01/20 07:23:30;;;;;;;13.07;7.77;;;;;;;;;;5016594;28;20412;-61
2024/01/20 07:25:56;;;;;;;12.37;8.07;;;;;;;;;;5017371;28;20449;-63
2024/01/20 07:28:22;;;;;;;10.13;7.50;;;;;;;;;;5019502;28;20640;-63
2024/01/20 07:30:48;;;;;;;10.67;8.27;;;;;;;;;;5014088;28;20849;-62
2024/01/20 07:33:14;;;;;;;11.17;8.07;;;;;;;;;;5015163;28;20409;-62
2024/01/20 07:35:40;;;;;;;11.20;7.17;;;;;;;;;;5019596;28;20416;-62
2024/01/20 07:38:06;;;;;;;10.63;7.07;;;;;;;;;;5014098;28;20321;-61
2024/01/20 07:40:32;;;;;;;11.53;8.53;;;;;;;;;;5020310;28;20959;-59
2024/01/20 07:42:58;;;;;;;12.77;7.63;;;;;;;;;;5013136;28;20217;-59
2024/01/20 07:45:27;;;;;;;12.07;7.43;;;;;;;;;;5015086;28;20210;-62
2024/01/20 07:47:53;;;;;;;11.00;7.53;;;;;;;;;;5019085;28;20440;-61
2024/01/20 07:50:19;;;;;;;9.23;7.60;;;;;;;;;;5016327;28;20409;-60
2024/01/20 07:52:45;;;;;;;11.73;7.27;;;;;;;;;;5003686;28;20483;-61
2024/01/20 07:55:11;;;;;;;11.70;7.90;;;;;;;;;;5011841;28;20189;-57
2024/01/20 07:57:37;;;;;;;12.37;8.77;;;;;;;;;;5015145;28;20428;-62
2024/01/20 08:00:04;;;;;;;12.00;8.70;;;;;;;;;;5011621;28;20500;-65
2024/01/20 08:02:30;;;;;;;11.13;8.03;;;;;;;;;;5014783;28;20429;-62
2024/01/20 08:04:56;;;;;;;10.87;7.67;;;;;;;;;;4999205;28;20612;-63
2024/01/20 08:07:23;;;;;;;12.30;7.93;;;;;;;;;;5013962;28;20941;-62
2024/01/20 08:09:49;;;;;;;10.43;7.80;;;;;;;;;;5014829;28;20416;-62
2024/01/20 08:12:15;;;;;;;10.83;7.50;;;;;;;;;;5016983;28;20444;-62
2024/01/20 08:14:41;;;;;;;10.83;7.87;;;;;;;;;;5020392;28;20877;-60
2024/01/20 08:17:07;;;;;;;11.23;8.03;;;;;;;;;;5017225;28;21033;-60
2024/01/20 08:19:33;;;;;;;10.63;7.63;;;;;;;;;;5016271;28;20453;-58
2024/01/20 08:21:59;;;;;;;11.60;7.90;;;;;;;;;;5015066;28;20962;-62
2024/01/20 08:24:25;;;;;;;9.37;7.40;;;;;;;;;;5023264;28;20500;-62
2024/01/20 08:26:51;;;;;;;12.23;8.13;;;;;;;;;;5014918;28;20193;-50
2024/01/20 08:29:18;;;;;;;11.60;9.00;;;;;;;;;;5014066;28;20626;-51
2024/01/20 08:31:44;;;;;;;9.90;7.73;;;;;;;;;;5022106;28;20820;-49
2024/01/20 08:34:10;;;;;;;10.40;7.37;;;;;;;;;;5011387;28;20440;-49
2024/01/20 08:36:36;;;;;;;10.73;7.23;;;;;;;;;;5014877;28;20453;-51
2024/01/20 08:39:02;;;;;;;10.07;7.73;;;;;;;;;;5022787;28;20498;-51
2024/01/20 08:41:28;;;;;;;12.57;8.43;;;;;;;;;;5014710;28;20661;-50
2024/01/20 08:43:55;;;;;;;11.93;8.03;;;;;;;;;;5020112;28;20556;-50
2024/01/20 08:46:21;;;;;;;10.93;7.80;;;;;;;;;;5019360;28;21306;-52
2024/01/20 08:48:47;;;;;;;13.97;8.30;;;;;;;;;;5015852;28;20448;-52
2024/01/20 08:51:13;;;;;;;12.47;8.57;;;;;;;;;;5008240;28;20865;-51
2024/01/20 08:53:39;;;;;;;10.27;7.60;;;;;;;;;;5018471;28;20467;-50
2024/01/20 08:56:05;;;;;;;11.60;7.60;;;;;;;;;;5018161;28;20441;-50
2024/01/20 08:58:31;;;;;;;10.17;7.27;;;;;;;;;;5021916;28;20417;-49
2024/01/20 09:00:57;;;;;;;10.87;8.07;;;;;;;;;;5016333;28;20416;-52
2024/01/20 09:03:23;;;;;;;9.83;7.50;;;;;;;;;;5020177;28;20481;-51
2024/01/20 09:05:50;;;;;;;12.83;7.83;;;;;;;;;;5019841;28;21305;-49
2024/01/20 09:08:16;;;;;;;9.47;7.17;;;;;;;;;;5012145;28;20425;-49
2024/01/20 09:10:42;;;;;;;12.10;8.47;;;;;;;;;;5015945;28;20582;-51
2024/01/20 09:13:08;;;;;;;11.27;8.03;;;;;;;;;;5015391;28;20187;-51
2024/01/20 09:15:34;;;;;;;11.33;8.27;;;;;;;;;;5017649;28;20440;-51
2024/01/20 09:18:00;;;;;;;10.07;7.00;;;;;;;;;;5016633;28;20512;-51
2024/01/20 09:20:26;;;;;;;12.73;8.30;;;;;;;;;;5012570;28;20499;-51
2024/01/20 09:22:52;;;;;;;10.20;7.87;;;;;;;;;;5021792;28;20293;-49
2024/01/20 09:25:18;;;;;;;9.57;7.23;;;;;;;;;;5017684;28;21200;-51
2024/01/20 09:27:45;;;;;;;11.10;7.77;;;;;;;;;;5015797;28;20884;-50
2024/01/20 09:30:11;;;;;;;11.47;8.00;;;;;;;;;;5018588;28;20439;-48
2024/01/20 09:32:37;;;;;;;11.40;7.63;;;;;;;;;;4997134;28;20508;-50
2024/01/20 09:35:03;;;;;;;10.63;7.80;;;;;;;;;;5020597;28;20425;-48
2024/01/20 09:37:29;;;;;;;10.70;8.77;;;;;;;;;;5015606;28;20437;-52
2024/01/20 09:39:56;;;;;;;10.90;8.33;;;;;;;;;;5017001;28;20429;-53
2024/01/20 09:42:22;;;;;;;10.80;7.40;;;;;;;;;;5022609;28;20496;-52
2024/01/20 09:44:49;;;;;;;11.60;8.57;;;;;;;;;;5000208;28;20507;-53
2024/01/20 09:47:15;;;;;;;12.00;7.83;;;;;;;;;;5017540;28;20460;-53
2024/01/20 09:49:41;;;;;;;11.80;7.67;;;;;;;;;;5012663;28;20428;-53
2024/01/20 09:52:09;;;;;;;10.23;7.83;;;;;;;;;;5012418;28;20538;-53
2024/01/20 09:54:38;;;;;;;11.20;8.03;;;;;;;;;;5022091;28;20444;-53
2024/01/20 09:57:05;;;;;;;13.07;8.13;;;;;;;;;;5013471;28;20792;-53
2024/01/20 09:59:31;;;;;;;12.93;8.03;;;;;;;;;;5013939;28;20428;-53
2024/01/20 10:01:57;;;;;;;12.63;7.93;;;;;;;;;;5017971;28;20439;-53
2024/01/20 10:04:24;;;;;;;8.77;7.23;;;;;;;;;;5018656;28;20464;-53
2024/01/20 10:06:54;;;;;;;9.60;7.07;;;;;;;;;;5011369;28;20864;-53
2024/01/20 10:09:22;;;;;;;8.43;7.07;;;;;;;;;;5004876;28;20471;-53
2024/01/20 10:11:48;;;;;;;9.93;7.43;;;;;;;;;;5021945;28;20519;-53
2024/01/20 10:14:14;;;;;;;10.13;7.13;;;;;;;;;;5023938;28;20416;-53
2024/01/20 10:16:40;;;;;;;12.93;7.87;;;;;;;;;;5019395;28;20626;-53
2024/01/20 10:19:06;;;;;;;10.13;6.83;;;;;;;;;;5023749;28;20498;-53
2024/01/20 10:21:39;;;;;;;9.70;6.53;;;;;;;;;;5022669;28;20308;-53
2024/01/20 10:24:05;;;;;;;9.73;7.33;;;;;;;;;;5020640;28;20453;-53
2024/01/20 10:26:31;;;;;;;9.10;6.40;;;;;;;;;;5016937;28;20921;-53
2024/01/20 10:28:57;;;;;;;9.93;6.90;;;;;;;;;;5014529;28;20436;-53
2024/01/20 10:31:23;;;;;;;8.80;6.13;;;;;;;;;;5015307;28;20190;-53
2024/01/20 10:33:50;;;;;;;8.30;5.93;;;;;;;;;;5010289;28;20253;-54
2024/01/20 10:36:18;;;;;;;8.70;6.70;;;;;;;;;;5016953;28;20504;-53
2024/01/20 10:38:46;;;;;;;8.83;6.83;;;;;;;;;;5012530;28;20418;-54
2024/01/20 10:41:14;;;;;;;10.83;7.33;;;;;;;;;;5019905;28;20454;-53
2024/01/20 10:43:45;;;;;;;9.20;6.70;;;;;;;;;;5011025;28;20852;-53
2024/01/20 10:46:25;;;;;;;8.73;6.17;;;;;;;;;;5014935;28;20823;-49
2024/01/20 10:48:53;;;;;;;10.47;6.67;;;;;;;;;;5010353;28;20444;-49
2024/01/20 10:51:22;;;;;;;13.10;7.00;;;;;;;;;;5014226;28;20943;-50
2024/01/20 10:53:49;;;;;;;10.13;6.03;;;;;;;;;;5016428;28;20425;-50
2024/01/20 10:56:16;;;;;;;8.90;6.57;;;;;;;;;;5021638;28;20445;-49
2024/01/20 10:58:45;;;;;;;8.00;6.63;;;;;;;;;;5021458;28;20420;-50
2024/01/20 11:01:11;;;;;;;7.67;6.10;;;;;;;;;;5026865;28;20483;-48
2024/01/20 11:03:38;;;;;;;10.73;6.80;;;;;;;;;;5013599;28;20409;-50
2024/01/20 11:06:04;;;;;;;11.70;6.77;;;;;;;;;;5023862;28;20893;-49
2024/01/20 11:08:31;;;;;;;10.40;6.67;;;;;;;;;;5019556;28;20801;-49
2024/01/20 11:10:57;;;;;;;34.70;7.60;;;;;;;;;;5024008;28;20432;-49
2024/01/20 11:13:24;;;;;;;7.97;6.43;;;;;;;;;;5017579;28;20427;-52
2024/01/20 11:15:51;;;;;;;7.93;5.60;;;;;;;;;;5019991;28;20420;-52
2024/01/20 11:18:17;;;;;;;10.43;6.83;;;;;;;;;;5018725;28;20833;-52
2024/01/20 11:20:53;;;;;;;9.37;6.87;;;;;;;;;;5020328;28;20451;-52
2024/01/20 11:23:20;;;;;;;9.27;7.10;;;;;;;;;;5019369;28;20967;-51
2024/01/20 11:25:46;;;;;;;8.23;5.87;;;;;;;;;;5014307;28;20579;-50
2024/01/20 11:28:22;;;;;;;8.23;5.93;;;;;;;;;;5017988;28;20641;-53
2024/01/20 11:30:48;;;;;;;10.40;6.83;;;;;;;;;;5016225;28;20938;-49
2024/01/20 11:33:15;;;;;;;11.20;6.90;;;;;;;;;;5022961;28;20451;-50
2024/01/20 11:35:41;;;;;;;9.47;6.30;;;;;;;;;;5012648;28;20410;-51
2024/01/20 11:38:08;;;;;;;7.63;5.97;;;;;;;;;;5015743;28;20440;-49
2024/01/20 11:40:34;;;;;;;8.93;6.70;;;;;;;;;;5017554;28;20419;-51
2024/01/20 11:43:06;;;;;;;8.80;6.30;;;;;;;;;;5013078;28;20463;-49
2024/01/20 11:45:33;;;;;;;10.27;6.30;;;;;;;;;;5019651;28;20495;-51
2024/01/20 11:47:59;;;;;;;10.70;6.93;;;;;;;;;;5020986;28;20438;-51
2024/01/20 11:50:26;;;;;;;9.80;6.23;;;;;;;;;;5019193;28;20447;-49
2024/01/20 11:52:52;;;;;;;7.53;5.87;;;;;;;;;;5019075;28;20451;-48
2024/01/20 11:55:18;;;;;;;8.43;6.30;;;;;;;;;;5014646;28;20420;-49
2024/01/20 11:57:44;;;;;;;8.70;6.50;;;;;;;;;;5019723;28;20897;-60
2024/01/20 12:00:11;;;;;;;9.57;6.30;;;;;;;;;;5019870;28;20441;-57
2024/01/20 12:02:37;;;;;;;9.93;7.33;;;;;;;;;;5017795;28;20424;-59
2024/01/20 12:05:04;;;;;;;7.80;5.90;;;;;;;;;;5015426;28;20463;-60
2024/01/20 12:07:30;;;;;;;8.20;6.10;;;;;;;;;;5011186;28;20440;-60
2024/01/20 12:09:57;;;;;;;8.50;5.73;;;;;;;;;;5010643;28;20429;-60
2024/01/20 12:12:23;;;;;;;8.83;6.70;;;;;;;;;;5012098;28;20418;-59
2024/01/20 12:14:50;;;;;;;13.10;6.67;;;;;;;;;;5014582;28;20464;-60
2024/01/20 12:17:16;;;;;;;9.20;6.43;;;;;;;;;;5009772;28;20421;-58
2024/01/20 12:19:42;;;;;;;8.67;6.60;;;;;;;;;;5020152;28;20425;-59
2024/01/20 12:22:09;;;;;;;9.53;6.73;;;;;;;;;;5011739;28;20406;-59
2024/01/20 12:24:36;;;;;;;8.80;6.47;;;;;;;;;;5022534;28;20468;-62
2024/01/20 12:27:02;;;;;;;8.67;6.10;;;;;;;;;;5023664;28;20926;-58
2024/01/20 12:29:29;;;;;;;9.00;6.53;;;;;;;;;;5020290;28;20440;-59
2024/01/20 12:31:55;;;;;;;7.77;6.10;;;;;;;;;;5013023;28;20862;-57
2024/01/20 12:34:25;;;;;;;8.70;5.87;;;;;;;;;;5020227;28;20428;-59
2024/01/20 12:36:51;;;;;;;7.23;5.77;;;;;;;;;;5015156;28;20341;-57
2024/01/20 12:39:17;;;;;;;6.70;5.33;;;;;;;;;;5019318;28;20467;-57
2024/01/20 12:41:43;;;;;;;8.03;6.23;;;;;;;;;;5014835;28;21309;-59
2024/01/20 12:44:09;;;;;;;11.90;6.60;;;;;;;;;;5017878;28;20292;-60
2024/01/20 12:46:35;;;;;;;7.40;5.80;;;;;;;;;;5017690;28;20222;-59
2024/01/20 12:49:01;;;;;;;9.27;5.63;;;;;;;;;;5018869;28;20297;-58
2024/01/20 12:51:27;;;;;;;7.50;5.87;;;;;;;;;;5016463;28;20192;-58
2024/01/20 12:53:53;;;;;;;8.33;5.53;;;;;;;;;;5018177;28;21038;-58
2024/01/20 12:56:20;;;;;;;9.53;6.23;;;;;;;;;;5018402;28;20270;-59
2024/01/20 12:58:46;;;;;;;9.50;6.17;;;;;;;;;;5016592;28;20175;-58
2024/01/20 13:01:12;;;;;;;10.03;6.70;;;;;;;;;;5019699;28;21008;-60
2024/01/20 13:03:38;;;;;;;7.47;5.90;;;;;;;;;;5023023;28;20194;-60
2024/01/20 13:06:04;;;;;;;7.03;5.13;;;;;;;;;;5014604;28;20780;-53
2024/01/20 13:08:30;;;;;;;7.00;5.80;;;;;;;;;;5023515;28;20279;-54
2024/01/20 13:10:56;;;;;;;6.73;5.07;;;;;;;;;;5017545;28;20177;-54
2024/01/20 13:13:22;;;;;;;9.70;6.33;;;;;;;;;;5020864;28;20185;-54
2024/01/20 13:15:48;;;;;;;7.03;5.87;;;;;;;;;;5023236;28;20185;-54
2024/01/20 13:18:14;;;;;;;6.90;5.77;;;;;;;;;;5019397;28;20183;-54
2024/01/20 13:20:40;;;;;;;7.07;5.53;;;;;;;;;;5015990;28;20281;-54
2024/01/20 13:23:06;;;;;;;6.83;5.70;;;;;;;;;;5018119;28;20196;-54
2024/01/20 13:25:32;;;;;;;8.00;5.87;;;;;;;;;;5019388;28;20209;-54
2024/01/20 13:27:58;;;;;;;10.03;6.17;;;;;;;;;;5018908;28;20201;-54
2024/01/20 13:30:24;;;;;;;9.10;5.80;;;;;;;;;;5020909;28;20174;-54
2024/01/20 13:32:50;;;;;;;8.57;6.50;;;;;;;;;;5018720;28;20669;-55
2024/01/20 13:35:16;;;;;;;8.63;6.37;;;;;;;;;;5016857;28;20186;-53
2024/01/20 13:37:42;;;;;;;9.20;6.47;;;;;;;;;;5017921;28;20213;-53
2024/01/20 13:40:12;;;;;;;8.30;6.77;;;;;;;;;;5017900;28;20206;-53
2024/01/20 13:42:38;;;;;;;7.70;6.03;;;;;;;;;;5017648;28;20704;-53
2024/01/20 13:45:04;;;;;;;8.87;6.67;;;;;;;;;;5019520;28;20201;-53
2024/01/20 13:47:30;;;;;;;8.67;5.83;;;;;;;;;;5017891;28;20991;-54
2024/01/20 13:49:56;;;;;;;8.40;6.20;;;;;;;;;;5022629;28;21172;-54
2024/01/20 13:52:22;;;;;;;9.03;6.33;;;;;;;;;;5026453;28;20178;-53
2024/01/20 13:54:48;;;;;;;8.43;6.20;;;;;;;;;;5028151;28;20189;-53
2024/01/20 13:57:14;;;;;;;8.93;6.23;;;;;;;;;;5028972;28;20177;-54
2024/01/20 13:59:40;;;;;;;7.60;5.67;;;;;;;;;;5019860;28;20534;-53
2024/01/20 14:02:06;;;;;;;7.70;6.13;;;;;;;;;;5020723;28;20229;-54
2024/01/20 14:04:32;;;;;;;7.40;6.60;;;;;;;;;;5011258;28;20228;-53
2024/01/20 14:07:00;;;;;;;7.93;6.17;;;;;;;;;;5011735;28;20182;-53
2024/01/20 14:09:26;;;;;;;7.73;5.83;;;;;;;;;;5015105;28;20637;-53
2024/01/20 14:11:52;;;;;;;7.50;5.90;;;;;;;;;;5019860;28;20220;-53
2024/01/20 14:14:18;;;;;;;9.63;6.13;;;;;;;;;;5013815;28;20261;-54
2024/01/20 14:16:57;;;;;;;8.73;6.50;;;;;;;;;;5015594;28;20194;-54
2024/01/20 14:19:24;;;;;;;8.17;6.27;;;;;;;;;;5029619;28;20185;-53
2024/01/20 14:21:50;;;;;;;8.73;6.23;;;;;;;;;;5011348;28;20179;-53
2024/01/20 14:24:17;;;;;;;7.43;6.07;;;;;;;;;;5020719;28;20206;-54
2024/01/20 14:26:43;;;;;;;7.73;6.13;;;;;;;;;;5018827;28;20615;-60
2024/01/20 14:29:09;;;;;;;8.00;5.93;;;;;;;;;;5016241;28;20189;-57